KPIR

Pierre Regional Airport

Pierre, South Dakota, USA
METAR KPIR 191053Z AUTO 07011G22KT 10SM -RA FEW041 OVC055 13/13 A2992 RMK AO2 TSE0958 PRESRR SLP125 P0001 T01330128
Observed Flight Rules
Sep-19 @ 10:53 UTC (39 minutes ago) Visual Flight Rules
Wind Visibility Clouds Conditions
70° at 11 knots
 Gusting to 22 knots
10 miles
  • Few at 4,100' AGL
  • Overcast at 5,500' AGL
  • Light Rain
Temperatures Readings Precipitation
Current 13°C / 55°F
Dewpoint 13°C / 55°F
Humidity 100%
Altimeter 29.92" Hg
Pressure 1012.5 hPa
Elevation 526
Current Rain 0.01
METAR KPIR 191053Z AUTO 07011G22KT 10SM -RA FEW041 OVC055 13/13 A2992 RMK AO2 TSE0958 PRESRR SLP125 P0001 T01330128
Observed Flight Rules
Sep-19 @ 10:53 UTC
(39 minutes ago)
VFR
Wind Visibility
70° at 11 knots
 Gusting to 22 knots
10 miles
Clouds
  • Few at 4,100' AGL
  • Overcast at 5,500' AGL
Conditions
  • Light Rain
Temperature Dewpoint
13°C / 55°F 13°C / 55°F
Humidity Altimeter Pressure
100% 29.92" Hg 1012.5 hPa
Current Rain
0.01